sensor_id;sensor_type;location;lat;lon;timestamp;temperature;humidity
15409;DHT22;7803;48.130;13.788;2023-11-21T00:00:47;23.30;88.90
15409;DHT22;7803;48.130;13.788;2023-11-21T00:03:49;23.30;88.80
15409;DHT22;7803;48.130;13.788;2023-11-21T00:06:55;23.30;88.90
15409;DHT22;7803;48.130;13.788;2023-11-21T00:09:58;23.20;88.80
15409;DHT22;7803;48.130;13.788;2023-11-21T00:13:00;23.20;89.10
15409;DHT22;7803;48.130;13.788;2023-11-21T00:16:04;23.20;89.10
15409;DHT22;7803;48.130;13.788;2023-11-21T00:19:06;23.20;89.10
15409;DHT22;7803;48.130;13.788;2023-11-21T00:22:08;23.20;89.10
15409;DHT22;7803;48.130;13.788;2023-11-21T00:25:12;23.20;89.10
15409;DHT22;7803;48.130;13.788;2023-11-21T00:28:15;23.20;89.10
15409;DHT22;7803;48.130;13.788;2023-11-21T00:31:17;23.20;89.20
15409;DHT22;7803;48.130;13.788;2023-11-21T00:34:19;23.20;89.30
15409;DHT22;7803;48.130;13.788;2023-11-21T00:37:21;23.20;89.10
15409;DHT22;7803;48.130;13.788;2023-11-21T00:40:25;23.30;89.40
15409;DHT22;7803;48.130;13.788;2023-11-21T00:43:31;23.30;89.80
15409;DHT22;7803;48.130;13.788;2023-11-21T00:46:33;23.30;89.40
15409;DHT22;7803;48.130;13.788;2023-11-21T00:49:35;23.40;89.00
15409;DHT22;7803;48.130;13.788;2023-11-21T00:52:40;23.50;88.80
15409;DHT22;7803;48.130;13.788;2023-11-21T00:55:45;23.50;89.10
15409;DHT22;7803;48.130;13.788;2023-11-21T00:58:47;23.50;90.50
15409;DHT22;7803;48.130;13.788;2023-11-21T01:01:50;23.60;93.70
15409;DHT22;7803;48.130;13.788;2023-11-21T01:04:53;23.70;92.60
15409;DHT22;7803;48.130;13.788;2023-11-21T01:07:55;23.90;92.20
15409;DHT22;7803;48.130;13.788;2023-11-21T01:10:58;24.00;92.30
15409;DHT22;7803;48.130;13.788;2023-11-21T01:14:00;24.00;90.30
15409;DHT22;7803;48.130;13.788;2023-11-21T01:17:02;24.40;82.70
15409;DHT22;7803;48.130;13.788;2023-11-21T01:20:06;24.80;79.30
15409;DHT22;7803;48.130;13.788;2023-11-21T01:23:12;25.00;76.60
15409;DHT22;7803;48.130;13.788;2023-11-21T01:26:16;25.10;75.40
15409;DHT22;7803;48.130;13.788;2023-11-21T01:29:18;25.00;74.60
15409;DHT22;7803;48.130;13.788;2023-11-21T01:32:20;24.90;74.10
15409;DHT22;7803;48.130;13.788;2023-11-21T01:35:23;24.80;73.80
15409;DHT22;7803;48.130;13.788;2023-11-21T01:38:24;24.70;73.60
15409;DHT22;7803;48.130;13.788;2023-11-21T01:41:28;24.60;72.70
15409;DHT22;7803;48.130;13.788;2023-11-21T01:44:31;24.50;72.60
15409;DHT22;7803;48.130;13.788;2023-11-21T01:47:33;24.40;72.60
15409;DHT22;7803;48.130;13.788;2023-11-21T01:50:36;24.30;72.70
15409;DHT22;7803;48.130;13.788;2023-11-21T01:53:39;24.20;72.90
15409;DHT22;7803;48.130;13.788;2023-11-21T01:56:43;24.10;73.20
15409;DHT22;7803;48.130;13.788;2023-11-21T01:59:45;24.10;73.50
15409;DHT22;7803;48.130;13.788;2023-11-21T02:02:49;24.00;73.70
15409;DHT22;7803;48.130;13.788;2023-11-21T02:05:51;23.90;73.80
15409;DHT22;7803;48.130;13.788;2023-11-21T02:08:54;23.80;73.90
15409;DHT22;7803;48.130;13.788;2023-11-21T02:11:57;23.80;74.10
15409;DHT22;7803;48.130;13.788;2023-11-21T02:15:00;23.70;74.90
15409;DHT22;7803;48.130;13.788;2023-11-21T02:18:02;23.70;75.90
15409;DHT22;7803;48.130;13.788;2023-11-21T02:21:06;23.70;76.60
15409;DHT22;7803;48.130;13.788;2023-11-21T02:24:10;23.70;77.40
15409;DHT22;7803;48.130;13.788;2023-11-21T02:27:12;23.60;77.90
15409;DHT22;7803;48.130;13.788;2023-11-21T02:30:17;23.60;78.30
15409;DHT22;7803;48.130;13.788;2023-11-21T02:33:19;23.50;78.70
15409;DHT22;7803;48.130;13.788;2023-11-21T02:36:21;23.50;79.10
15409;DHT22;7803;48.130;13.788;2023-11-21T02:39:25;23.50;79.20
15409;DHT22;7803;48.130;13.788;2023-11-21T02:42:27;23.40;79.40
15409;DHT22;7803;48.130;13.788;2023-11-21T02:45:29;23.40;80.60
15409;DHT22;7803;48.130;13.788;2023-11-21T02:48:32;23.40;80.00
15409;DHT22;7803;48.130;13.788;2023-11-21T02:51:34;23.40;80.20
15409;DHT22;7803;48.130;13.788;2023-11-21T02:54:37;23.40;80.40
15409;DHT22;7803;48.130;13.788;2023-11-21T02:57:39;23.40;80.60
15409;DHT22;7803;48.130;13.788;2023-11-21T03:00:41;23.40;80.80
15409;DHT22;7803;48.130;13.788;2023-11-21T03:03:43;23.30;80.80
15409;DHT22;7803;48.130;13.788;2023-11-21T03:06:46;23.30;81.00
15409;DHT22;7803;48.130;13.788;2023-11-21T03:09:49;23.30;81.10
15409;DHT22;7803;48.130;13.788;2023-11-21T03:12:51;23.30;81.30
15409;DHT22;7803;48.130;13.788;2023-11-21T03:15:53;23.30;81.50
15409;DHT22;7803;48.130;13.788;2023-11-21T03:18:55;23.30;81.60
15409;DHT22;7803;48.130;13.788;2023-11-21T03:21:57;23.30;82.70
15409;DHT22;7803;48.130;13.788;2023-11-21T03:25:01;23.30;82.00
15409;DHT22;7803;48.130;13.788;2023-11-21T03:28:03;23.30;82.20
15409;DHT22;7803;48.130;13.788;2023-11-21T03:31:06;23.30;82.30
15409;DHT22;7803;48.130;13.788;2023-11-21T03:34:14;23.20;82.30
15409;DHT22;7803;48.130;13.788;2023-11-21T03:37:16;23.30;82.50
15409;DHT22;7803;48.130;13.788;2023-11-21T03:40:22;23.20;82.50
15409;DHT22;7803;48.130;13.788;2023-11-21T03:43:25;23.20;82.60
15409;DHT22;7803;48.130;13.788;2023-11-21T03:46:27;23.20;82.70
15409;DHT22;7803;48.130;13.788;2023-11-21T03:49:29;23.20;82.70
15409;DHT22;7803;48.130;13.788;2023-11-21T03:52:31;23.20;82.80
15409;DHT22;7803;48.130;13.788;2023-11-21T03:55:35;23.20;82.80
15409;DHT22;7803;48.130;13.788;2023-11-21T03:58:37;23.20;82.80
15409;DHT22;7803;48.130;13.788;2023-11-21T04:01:39;23.20;82.90
15409;DHT22;7803;48.130;13.788;2023-11-21T04:04:41;23.10;82.80
15409;DHT22;7803;48.130;13.788;2023-11-21T04:07:43;23.20;82.90
15409;DHT22;7803;48.130;13.788;2023-11-21T04:10:46;23.10;82.90
15409;DHT22;7803;48.130;13.788;2023-11-21T04:13:49;23.10;82.90
15409;DHT22;7803;48.130;13.788;2023-11-21T04:16:51;23.20;83.00
15409;DHT22;7803;48.130;13.788;2023-11-21T04:19:54;23.10;82.90
15409;DHT22;7803;48.130;13.788;2023-11-21T04:22:56;23.10;83.00
15409;DHT22;7803;48.130;13.788;2023-11-21T04:25:59;23.10;83.00
15409;DHT22;7803;48.130;13.788;2023-11-21T04:29:02;23.10;83.00
15409;DHT22;7803;48.130;13.788;2023-11-21T04:32:05;23.10;83.00
15409;DHT22;7803;48.130;13.788;2023-11-21T04:35:09;23.10;83.00
15409;DHT22;7803;48.130;13.788;2023-11-21T04:38:11;23.10;83.10
15409;DHT22;7803;48.130;13.788;2023-11-21T04:41:14;23.10;83.10
15409;DHT22;7803;48.130;13.788;2023-11-21T04:44:16;23.10;83.20
15409;DHT22;7803;48.130;13.788;2023-11-21T04:47:18;23.10;83.20
15409;DHT22;7803;48.130;13.788;2023-11-21T04:50:20;23.10;83.30
15409;DHT22;7803;48.130;13.788;2023-11-21T04:53:22;23.10;83.50
15409;DHT22;7803;48.130;13.788;2023-11-21T04:56:25;23.10;83.60
15409;DHT22;7803;48.130;13.788;2023-11-21T04:59:27;23.10;83.90
15409;DHT22;7803;48.130;13.788;2023-11-21T05:02:29;23.10;84.00
15409;DHT22;7803;48.130;13.788;2023-11-21T05:05:32;23.10;84.20
15409;DHT22;7803;48.130;13.788;2023-11-21T05:08:34;23.10;84.40
15409;DHT22;7803;48.130;13.788;2023-11-21T05:11:39;23.10;84.50
15409;DHT22;7803;48.130;13.788;2023-11-21T05:14:41;23.10;85.50
15409;DHT22;7803;48.130;13.788;2023-11-21T05:17:44;23.00;84.80
15409;DHT22;7803;48.130;13.788;2023-11-21T05:20:47;23.00;84.90
15409;DHT22;7803;48.130;13.788;2023-11-21T05:23:49;23.10;85.00
15409;DHT22;7803;48.130;13.788;2023-11-21T05:26:52;23.00;85.00
15409;DHT22;7803;48.130;13.788;2023-11-21T05:29:54;23.10;85.20
15409;DHT22;7803;48.130;13.788;2023-11-21T05:32:56;23.00;85.10
15409;DHT22;7803;48.130;13.788;2023-11-21T05:36:00;23.00;85.10
15409;DHT22;7803;48.130;13.788;2023-11-21T05:39:02;23.00;85.20
15409;DHT22;7803;48.130;13.788;2023-11-21T05:42:06;23.00;85.30
15409;DHT22;7803;48.130;13.788;2023-11-21T05:45:10;23.00;85.50
15409;DHT22;7803;48.130;13.788;2023-11-21T05:48:12;23.00;85.30
15409;DHT22;7803;48.130;13.788;2023-11-21T05:51:14;23.00;85.30
15409;DHT22;7803;48.130;13.788;2023-11-21T05:54:16;23.10;85.40
15409;DHT22;7803;48.130;13.788;2023-11-21T05:57:19;23.00;85.40
15409;DHT22;7803;48.130;13.788;2023-11-21T06:00:21;23.10;85.40
15409;DHT22;7803;48.130;13.788;2023-11-21T06:03:26;23.10;85.40
15409;DHT22;7803;48.130;13.788;2023-11-21T06:06:28;23.10;85.40
15409;DHT22;7803;48.130;13.788;2023-11-21T06:09:30;23.10;85.40
15409;DHT22;7803;48.130;13.788;2023-11-21T06:12:33;23.20;86.20
15409;DHT22;7803;48.130;13.788;2023-11-21T06:15:36;23.10;86.70
15409;DHT22;7803;48.130;13.788;2023-11-21T06:18:38;23.20;86.90
15409;DHT22;7803;48.130;13.788;2023-11-21T06:21:40;23.20;86.50
15409;DHT22;7803;48.130;13.788;2023-11-21T06:24:42;23.30;86.90
15409;DHT22;7803;48.130;13.788;2023-11-21T06:27:48;23.30;88.90
15409;DHT22;7803;48.130;13.788;2023-11-21T06:30:50;23.30;88.10
15409;DHT22;7803;48.130;13.788;2023-11-21T06:33:53;23.40;87.60
15409;DHT22;7803;48.130;13.788;2023-11-21T06:36:55;23.40;87.40
15409;DHT22;7803;48.130;13.788;2023-11-21T06:39:58;23.40;87.40
15409;DHT22;7803;48.130;13.788;2023-11-21T06:43:01;23.40;87.30
15409;DHT22;7803;48.130;13.788;2023-11-21T06:46:04;23.40;86.50
15409;DHT22;7803;48.130;13.788;2023-11-21T06:49:06;23.40;85.20
15409;DHT22;7803;48.130;13.788;2023-11-21T06:52:08;23.40;83.80
15409;DHT22;7803;48.130;13.788;2023-11-21T06:55:10;23.40;83.50
15409;DHT22;7803;48.130;13.788;2023-11-21T06:58:13;23.40;87.60
15409;DHT22;7803;48.130;13.788;2023-11-21T07:01:16;23.50;86.70
15409;DHT22;7803;48.130;13.788;2023-11-21T07:04:18;23.60;86.30
15409;DHT22;7803;48.130;13.788;2023-11-21T07:07:20;23.70;86.00
15409;DHT22;7803;48.130;13.788;2023-11-21T07:10:22;23.80;85.50
15409;DHT22;7803;48.130;13.788;2023-11-21T07:13:26;23.80;85.20
15409;DHT22;7803;48.130;13.788;2023-11-21T07:16:31;23.80;85.20
15409;DHT22;7803;48.130;13.788;2023-11-21T07:19:35;23.80;85.40
15409;DHT22;7803;48.130;13.788;2023-11-21T07:22:37;23.80;85.20
15409;DHT22;7803;48.130;13.788;2023-11-21T07:25:39;23.80;86.10
15409;DHT22;7803;48.130;13.788;2023-11-21T07:28:43;23.80;85.40
15409;DHT22;7803;48.130;13.788;2023-11-21T07:31:45;23.70;85.20
15409;DHT22;7803;48.130;13.788;2023-11-21T07:34:47;23.70;85.10
15409;DHT22;7803;48.130;13.788;2023-11-21T07:37:49;23.70;85.20
15409;DHT22;7803;48.130;13.788;2023-11-21T07:40:50;23.70;85.20
15409;DHT22;7803;48.130;13.788;2023-11-21T07:43:54;23.70;85.20
15409;DHT22;7803;48.130;13.788;2023-11-21T07:46:56;23.70;85.20
15409;DHT22;7803;48.130;13.788;2023-11-21T07:49:58;23.70;85.20
15409;DHT22;7803;48.130;13.788;2023-11-21T07:53:01;23.70;85.30
15409;DHT22;7803;48.130;13.788;2023-11-21T07:56:07;23.70;85.40
15409;DHT22;7803;48.130;13.788;2023-11-21T07:59:11;23.70;85.50
15409;DHT22;7803;48.130;13.788;2023-11-21T08:02:14;23.70;85.50
15409;DHT22;7803;48.130;13.788;2023-11-21T08:05:17;23.70;85.40
15409;DHT22;7803;48.130;13.788;2023-11-21T08:08:19;23.60;84.90
15409;DHT22;7803;48.130;13.788;2023-11-21T08:11:21;23.60;85.00
15409;DHT22;7803;48.130;13.788;2023-11-21T08:14:24;23.60;85.20
15409;DHT22;7803;48.130;13.788;2023-11-21T08:17:27;23.60;85.30
15409;DHT22;7803;48.130;13.788;2023-11-21T08:20:30;23.70;85.30
15409;DHT22;7803;48.130;13.788;2023-11-21T08:23:32;23.60;85.20
15409;DHT22;7803;48.130;13.788;2023-11-21T08:26:34;23.60;85.30
15409;DHT22;7803;48.130;13.788;2023-11-21T08:29:38;23.60;85.30
15409;DHT22;7803;48.130;13.788;2023-11-21T08:32:40;23.60;85.50
15409;DHT22;7803;48.130;13.788;2023-11-21T08:35:42;23.70;85.60
15409;DHT22;7803;48.130;13.788;2023-11-21T08:38:44;23.60;85.50
15409;DHT22;7803;48.130;13.788;2023-11-21T08:41:45;23.60;85.50
15409;DHT22;7803;48.130;13.788;2023-11-21T08:44:50;23.70;85.50
15409;DHT22;7803;48.130;13.788;2023-11-21T08:47:52;23.70;85.60
15409;DHT22;7803;48.130;13.788;2023-11-21T08:50:54;23.70;85.90
15409;DHT22;7803;48.130;13.788;2023-11-21T08:53:56;23.70;85.70
15409;DHT22;7803;48.130;13.788;2023-11-21T08:57:00;23.70;85.70
15409;DHT22;7803;48.130;13.788;2023-11-21T09:00:05;23.70;85.90
15409;DHT22;7803;48.130;13.788;2023-11-21T09:03:09;23.70;86.10
15409;DHT22;7803;48.130;13.788;2023-11-21T09:06:12;23.70;86.10
15409;DHT22;7803;48.130;13.788;2023-11-21T09:09:14;23.70;86.20
15409;DHT22;7803;48.130;13.788;2023-11-21T09:12:16;23.70;86.30
15409;DHT22;7803;48.130;13.788;2023-11-21T09:15:21;23.70;86.40
15409;DHT22;7803;48.130;13.788;2023-11-21T09:18:23;23.70;86.50
15409;DHT22;7803;48.130;13.788;2023-11-21T09:21:25;23.70;86.60
15409;DHT22;7803;48.130;13.788;2023-11-21T09:24:28;23.70;86.60
15409;DHT22;7803;48.130;13.788;2023-11-21T09:27:31;23.70;86.70
15409;DHT22;7803;48.130;13.788;2023-11-21T09:30:34;23.70;86.70
15409;DHT22;7803;48.130;13.788;2023-11-21T09:33:36;23.70;86.70
15409;DHT22;7803;48.130;13.788;2023-11-21T09:36:38;23.70;86.60
15409;DHT22;7803;48.130;13.788;2023-11-21T09:39:41;23.70;86.50
15409;DHT22;7803;48.130;13.788;2023-11-21T09:42:49;23.70;86.70
15409;DHT22;7803;48.130;13.788;2023-11-21T09:46:00;23.70;86.80
15409;DHT22;7803;48.130;13.788;2023-11-21T09:49:04;23.70;86.90
15409;DHT22;7803;48.130;13.788;2023-11-21T09:52:09;23.70;86.90
15409;DHT22;7803;48.130;13.788;2023-11-21T09:55:16;23.70;87.00
15409;DHT22;7803;48.130;13.788;2023-11-21T09:58:22;23.70;87.10
15409;DHT22;7803;48.130;13.788;2023-11-21T10:01:27;23.70;87.20
15409;DHT22;7803;48.130;13.788;2023-11-21T10:04:31;23.70;87.20
15409;DHT22;7803;48.130;13.788;2023-11-21T10:07:34;23.70;87.30
15409;DHT22;7803;48.130;13.788;2023-11-21T10:10:37;23.70;87.40
15409;DHT22;7803;48.130;13.788;2023-11-21T10:13:43;23.70;87.40
15409;DHT22;7803;48.130;13.788;2023-11-21T10:16:49;23.70;87.50
15409;DHT22;7803;48.130;13.788;2023-11-21T10:19:51;23.70;87.60
15409;DHT22;7803;48.130;13.788;2023-11-21T10:22:56;23.70;87.60
15409;DHT22;7803;48.130;13.788;2023-11-21T10:25:59;23.80;87.60
15409;DHT22;7803;48.130;13.788;2023-11-21T10:29:02;23.80;87.60
15409;DHT22;7803;48.130;13.788;2023-11-21T10:32:06;23.80;87.70
15409;DHT22;7803;48.130;13.788;2023-11-21T10:35:09;23.70;87.70
15409;DHT22;7803;48.130;13.788;2023-11-21T10:38:12;23.80;87.90
15409;DHT22;7803;48.130;13.788;2023-11-21T10:41:14;23.80;87.90
15409;DHT22;7803;48.130;13.788;2023-11-21T10:44:17;23.80;87.90
15409;DHT22;7803;48.130;13.788;2023-11-21T10:47:23;23.80;87.80
15409;DHT22;7803;48.130;13.788;2023-11-21T10:50:28;23.80;87.70
15409;DHT22;7803;48.130;13.788;2023-11-21T10:53:30;23.80;87.70
15409;DHT22;7803;48.130;13.788;2023-11-21T10:56:32;23.80;87.60
15409;DHT22;7803;48.130;13.788;2023-11-21T10:59:36;23.80;87.60
15409;DHT22;7803;48.130;13.788;2023-11-21T11:02:40;23.80;87.50
15409;DHT22;7803;48.130;13.788;2023-11-21T11:05:47;23.90;87.30
15409;DHT22;7803;48.130;13.788;2023-11-21T11:08:51;23.80;87.70
15409;DHT22;7803;48.130;13.788;2023-11-21T11:11:53;23.90;87.60
15409;DHT22;7803;48.130;13.788;2023-11-21T11:15:00;23.80;88.60
15409;DHT22;7803;48.130;13.788;2023-11-21T11:18:06;23.90;98.00
15409;DHT22;7803;48.130;13.788;2023-11-21T11:21:20;24.00;99.00
15409;DHT22;7803;48.130;13.788;2023-11-21T11:24:47;24.00;98.80
15409;DHT22;7803;48.130;13.788;2023-11-21T11:27:56;24.20;94.80
15409;DHT22;7803;48.130;13.788;2023-11-21T11:31:08;24.30;99.90
15409;DHT22;7803;48.130;13.788;2023-11-21T11:34:22;24.40;94.90
15409;DHT22;7803;48.130;13.788;2023-11-21T11:37:25;24.40;94.40
15409;DHT22;7803;48.130;13.788;2023-11-21T11:40:39;24.60;92.40
15409;DHT22;7803;48.130;13.788;2023-11-21T11:43:41;24.90;90.80
15409;DHT22;7803;48.130;13.788;2023-11-21T11:46:45;25.10;90.10
15409;DHT22;7803;48.130;13.788;2023-11-21T11:50:03;25.10;89.60
15409;DHT22;7803;48.130;13.788;2023-11-21T11:53:14;25.20;88.90
15409;DHT22;7803;48.130;13.788;2023-11-21T11:56:25;25.10;88.40
15409;DHT22;7803;48.130;13.788;2023-11-21T11:59:27;25.10;88.40
15409;DHT22;7803;48.130;13.788;2023-11-21T12:02:29;25.10;90.00
15409;DHT22;7803;48.130;13.788;2023-11-21T12:05:34;25.10;91.10
15409;DHT22;7803;48.130;13.788;2023-11-21T12:08:40;25.00;89.30
15409;DHT22;7803;48.130;13.788;2023-11-21T12:11:43;24.90;90.80
15409;DHT22;7803;48.130;13.788;2023-11-21T12:14:45;24.90;89.40
15409;DHT22;7803;48.130;13.788;2023-11-21T12:17:48;24.90;88.60
15409;DHT22;7803;48.130;13.788;2023-11-21T12:20:52;24.80;88.40
15409;DHT22;7803;48.130;13.788;2023-11-21T12:23:54;24.70;88.20
15409;DHT22;7803;48.130;13.788;2023-11-21T12:26:56;24.70;88.20
15409;DHT22;7803;48.130;13.788;2023-11-21T12:29:58;24.70;86.70
15409;DHT22;7803;48.130;13.788;2023-11-21T12:33:01;24.60;82.60
15409;DHT22;7803;48.130;13.788;2023-11-21T12:36:05;24.50;80.60
15409;DHT22;7803;48.130;13.788;2023-11-21T12:39:11;24.40;79.40
15409;DHT22;7803;48.130;13.788;2023-11-21T12:42:13;24.40;78.40
15409;DHT22;7803;48.130;13.788;2023-11-21T12:45:19;24.30;77.60
15409;DHT22;7803;48.130;13.788;2023-11-21T12:48:23;24.30;76.70
15409;DHT22;7803;48.130;13.788;2023-11-21T12:51:26;24.20;76.00
15409;DHT22;7803;48.130;13.788;2023-11-21T12:54:29;24.20;75.40
15409;DHT22;7803;48.130;13.788;2023-11-21T12:57:31;24.10;75.10
15409;DHT22;7803;48.130;13.788;2023-11-21T13:00:35;24.10;75.20
15409;DHT22;7803;48.130;13.788;2023-11-21T13:03:38;24.10;75.70
15409;DHT22;7803;48.130;13.788;2023-11-21T13:06:42;24.10;76.40
15409;DHT22;7803;48.130;13.788;2023-11-21T13:09:44;24.00;75.90
15409;DHT22;7803;48.130;13.788;2023-11-21T13:12:46;24.00;75.60
15409;DHT22;7803;48.130;13.788;2023-11-21T13:15:49;23.90;75.30
15409;DHT22;7803;48.130;13.788;2023-11-21T13:18:51;23.90;74.80
15409;DHT22;7803;48.130;13.788;2023-11-21T13:21:55;23.90;74.40
15409;DHT22;7803;48.130;13.788;2023-11-21T13:24:57;23.90;74.40
15409;DHT22;7803;48.130;13.788;2023-11-21T13:27:59;23.80;74.80
15409;DHT22;7803;48.130;13.788;2023-11-21T13:31:03;23.90;75.20
15409;DHT22;7803;48.130;13.788;2023-11-21T13:34:10;23.90;75.70
15409;DHT22;7803;48.130;13.788;2023-11-21T13:37:16;23.90;75.90
15409;DHT22;7803;48.130;13.788;2023-11-21T13:40:22;23.90;84.70
15409;DHT22;7803;48.130;13.788;2023-11-21T13:43:26;24.00;82.80
15409;DHT22;7803;48.130;13.788;2023-11-21T13:46:29;24.10;82.50
15409;DHT22;7803;48.130;13.788;2023-11-21T13:49:37;24.20;82.80
15409;DHT22;7803;48.130;13.788;2023-11-21T13:52:43;24.10;82.50
15409;DHT22;7803;48.130;13.788;2023-11-21T13:55:45;24.20;82.20
15409;DHT22;7803;48.130;13.788;2023-11-21T13:58:48;24.20;82.20
15409;DHT22;7803;48.130;13.788;2023-11-21T14:01:52;24.10;82.20
15409;DHT22;7803;48.130;13.788;2023-11-21T14:04:59;24.10;82.20
15409;DHT22;7803;48.130;13.788;2023-11-21T14:08:11;24.10;82.30
15409;DHT22;7803;48.130;13.788;2023-11-21T14:11:17;24.10;82.50
15409;DHT22;7803;48.130;13.788;2023-11-21T14:14:24;24.10;82.50
15409;DHT22;7803;48.130;13.788;2023-11-21T14:17:28;24.10;82.50
15409;DHT22;7803;48.130;13.788;2023-11-21T14:20:30;24.10;82.40
15409;DHT22;7803;48.130;13.788;2023-11-21T14:23:35;24.10;82.60
15409;DHT22;7803;48.130;13.788;2023-11-21T14:26:40;24.10;82.70
15409;DHT22;7803;48.130;13.788;2023-11-21T14:29:43;24.10;82.70
15409;DHT22;7803;48.130;13.788;2023-11-21T14:32:46;24.10;82.80
15409;DHT22;7803;48.130;13.788;2023-11-21T14:35:48;24.10;82.90
15409;DHT22;7803;48.130;13.788;2023-11-21T14:38:52;24.10;83.20
15409;DHT22;7803;48.130;13.788;2023-11-21T14:41:55;24.10;83.50
15409;DHT22;7803;48.130;13.788;2023-11-21T14:44:58;24.10;84.40
15409;DHT22;7803;48.130;13.788;2023-11-21T14:48:07;24.10;84.20
15409;DHT22;7803;48.130;13.788;2023-11-21T14:51:16;24.10;83.90
15409;DHT22;7803;48.130;13.788;2023-11-21T14:54:30;24.10;83.70
15409;DHT22;7803;48.130;13.788;2023-11-21T14:57:49;24.10;83.60
15409;DHT22;7803;48.130;13.788;2023-11-21T15:00:51;24.10;83.50
15409;DHT22;7803;48.130;13.788;2023-11-21T15:03:58;24.10;83.50
15409;DHT22;7803;48.130;13.788;2023-11-21T15:07:00;24.10;83.50
15409;DHT22;7803;48.130;13.788;2023-11-21T15:10:03;24.10;83.60
15409;DHT22;7803;48.130;13.788;2023-11-21T15:13:09;24.10;83.70
15409;DHT22;7803;48.130;13.788;2023-11-21T15:16:11;24.10;83.70
15409;DHT22;7803;48.130;13.788;2023-11-21T15:19:13;24.00;83.70
15409;DHT22;7803;48.130;13.788;2023-11-21T15:22:18;24.10;83.80
15409;DHT22;7803;48.130;13.788;2023-11-21T15:25:22;24.00;83.80
15409;DHT22;7803;48.130;13.788;2023-11-21T15:28:24;24.00;83.90
15409;DHT22;7803;48.130;13.788;2023-11-21T15:31:26;24.00;83.80
15409;DHT22;7803;48.130;13.788;2023-11-21T15:34:28;24.00;83.90
15409;DHT22;7803;48.130;13.788;2023-11-21T15:37:31;24.00;83.80
15409;DHT22;7803;48.130;13.788;2023-11-21T15:40:35;24.00;83.80
15409;DHT22;7803;48.130;13.788;2023-11-21T15:43:37;24.00;83.80
15409;DHT22;7803;48.130;13.788;2023-11-21T15:46:39;24.00;83.80
15409;DHT22;7803;48.130;13.788;2023-11-21T15:49:42;23.90;83.80
15409;DHT22;7803;48.130;13.788;2023-11-21T15:52:46;23.90;83.80
15409;DHT22;7803;48.130;13.788;2023-11-21T15:55:49;23.90;83.80
15409;DHT22;7803;48.130;13.788;2023-11-21T15:58:51;23.90;83.80
15409;DHT22;7803;48.130;13.788;2023-11-21T16:01:54;24.00;83.80
15409;DHT22;7803;48.130;13.788;2023-11-21T16:04:57;23.90;83.80
15409;DHT22;7803;48.130;13.788;2023-11-21T16:08:00;23.90;83.80
15409;DHT22;7803;48.130;13.788;2023-11-21T16:11:04;23.90;83.80
15409;DHT22;7803;48.130;13.788;2023-11-21T16:14:06;23.90;83.80
15409;DHT22;7803;48.130;13.788;2023-11-21T16:17:08;23.90;83.80
15409;DHT22;7803;48.130;13.788;2023-11-21T16:20:10;23.90;83.80
15409;DHT22;7803;48.130;13.788;2023-11-21T16:23:15;23.90;83.80
15409;DHT22;7803;48.130;13.788;2023-11-21T16:26:19;23.90;83.80
15409;DHT22;7803;48.130;13.788;2023-11-21T16:29:21;23.90;83.80
15409;DHT22;7803;48.130;13.788;2023-11-21T16:32:23;23.90;83.80
15409;DHT22;7803;48.130;13.788;2023-11-21T16:35:25;23.90;83.80
15409;DHT22;7803;48.130;13.788;2023-11-21T16:38:27;23.90;83.90
15409;DHT22;7803;48.130;13.788;2023-11-21T16:41:30;23.90;83.90
15409;DHT22;7803;48.130;13.788;2023-11-21T16:44:33;23.90;83.90
15409;DHT22;7803;48.130;13.788;2023-11-21T16:47:35;23.90;83.90
15409;DHT22;7803;48.130;13.788;2023-11-21T16:50:38;23.90;84.00
15409;DHT22;7803;48.130;13.788;2023-11-21T16:53:43;23.90;84.00
15409;DHT22;7803;48.130;13.788;2023-11-21T16:56:47;23.90;84.00
15409;DHT22;7803;48.130;13.788;2023-11-21T16:59:49;23.90;84.00
15409;DHT22;7803;48.130;13.788;2023-11-21T17:02:52;23.90;84.00
15409;DHT22;7803;48.130;13.788;2023-11-21T17:05:54;23.90;84.00
15409;DHT22;7803;48.130;13.788;2023-11-21T17:08:56;23.90;84.00
15409;DHT22;7803;48.130;13.788;2023-11-21T17:11:59;23.80;83.90
15409;DHT22;7803;48.130;13.788;2023-11-21T17:15:05;23.90;84.00
15409;DHT22;7803;48.130;13.788;2023-11-21T17:18:08;23.90;84.00
15409;DHT22;7803;48.130;13.788;2023-11-21T17:21:10;23.90;84.00
15409;DHT22;7803;48.130;13.788;2023-11-21T17:24:12;23.90;84.00
15409;DHT22;7803;48.130;13.788;2023-11-21T17:27:16;23.90;84.00
15409;DHT22;7803;48.130;13.788;2023-11-21T17:30:18;23.90;84.00
15409;DHT22;7803;48.130;13.788;2023-11-21T17:33:20;23.90;83.90
15409;DHT22;7803;48.130;13.788;2023-11-21T17:36:22;23.90;83.90
15409;DHT22;7803;48.130;13.788;2023-11-21T17:39:25;23.90;84.00
15409;DHT22;7803;48.130;13.788;2023-11-21T17:42:28;23.90;83.90
15409;DHT22;7803;48.130;13.788;2023-11-21T17:45:30;23.90;83.90
15409;DHT22;7803;48.130;13.788;2023-11-21T17:48:32;23.90;83.90
15409;DHT22;7803;48.130;13.788;2023-11-21T17:51:38;23.90;83.80
15409;DHT22;7803;48.130;13.788;2023-11-21T17:54:39;23.90;83.90
15409;DHT22;7803;48.130;13.788;2023-11-21T17:57:44;23.90;83.80
15409;DHT22;7803;48.130;13.788;2023-11-21T18:00:46;23.90;83.80
15409;DHT22;7803;48.130;13.788;2023-11-21T18:03:48;23.90;83.80
15409;DHT22;7803;48.130;13.788;2023-11-21T18:06:50;23.90;83.80
15409;DHT22;7803;48.130;13.788;2023-11-21T18:09:54;23.90;83.90
15409;DHT22;7803;48.130;13.788;2023-11-21T18:12:57;23.90;83.80
15409;DHT22;7803;48.130;13.788;2023-11-21T18:15:59;23.90;83.80
15409;DHT22;7803;48.130;13.788;2023-11-21T18:19:01;23.90;83.90
15409;DHT22;7803;48.130;13.788;2023-11-21T18:22:03;23.90;83.80
15409;DHT22;7803;48.130;13.788;2023-11-21T18:25:06;23.90;83.80
15409;DHT22;7803;48.130;13.788;2023-11-21T18:28:10;23.90;84.80
15409;DHT22;7803;48.130;13.788;2023-11-21T18:31:12;23.90;84.00
15409;DHT22;7803;48.130;13.788;2023-11-21T18:34:15;23.90;83.80
15409;DHT22;7803;48.130;13.788;2023-11-21T18:37:19;23.90;83.80
15409;DHT22;7803;48.130;13.788;2023-11-21T18:40:21;23.90;83.90
15409;DHT22;7803;48.130;13.788;2023-11-21T18:43:24;23.90;83.80
15409;DHT22;7803;48.130;13.788;2023-11-21T18:46:26;23.90;83.80
15409;DHT22;7803;48.130;13.788;2023-11-21T18:49:28;23.90;83.80
15409;DHT22;7803;48.130;13.788;2023-11-21T18:52:30;23.90;83.90
15409;DHT22;7803;48.130;13.788;2023-11-21T18:55:33;23.90;83.90
15409;DHT22;7803;48.130;13.788;2023-11-21T18:58:38;23.90;83.90
15409;DHT22;7803;48.130;13.788;2023-11-21T19:01:39;23.90;84.00
15409;DHT22;7803;48.130;13.788;2023-11-21T19:04:44;23.90;84.00
15409;DHT22;7803;48.130;13.788;2023-11-21T19:07:46;23.80;83.90
15409;DHT22;7803;48.130;13.788;2023-11-21T19:10:51;23.90;84.00
15409;DHT22;7803;48.130;13.788;2023-11-21T19:14:07;23.90;84.00
15409;DHT22;7803;48.130;13.788;2023-11-21T19:17:09;23.90;84.00